Paganini — V2CL8 — position and weather

sailwx.info

Track history (hours):
 
Tides and Currents Weather Stations Pressure Air Temp Water Temp Dewpoint Dewpoint Depression Visibility Wind Speed Wind Dir Waves Ship Positions

Paganini

Last reported at 2017-Mar-27 00:34 UTC. Time now 2017-Mar-27 00:46 UTC.
Position N 50°35' W 005°28'.

Length 90 m; draft 5.4 m.

Type: Cargo ship. MMSI: 305040000.

Date/timePositionNaut miles runAvg speedWind from/ knotsBaromVisibWave heightAir tempDewpointWater temp
2017-Mar-27 00:34N 50°35' W 005°28'8 7.8
2017-Mar-26 23:33N 50°30' W 005°37'8 7.1
2017-Mar-26 22:28N 50°25' W 005°46'8 6.5
2017-Mar-26 21:17N 50°18' W 005°53'6 6.8
2017-Mar-26 20:26N 50°13' W 005°54'6 6.6
2017-Mar-26 19:32N 50°07' W 005°53'34 6.6
2017-Mar-26 14:23N 49°53' W 005°05'7 8.3
2017-Mar-26 13:33N 49°54' W 004°54'10 8.9
2017-Mar-26 12:26N 49°54' W 004°38'9 9.5
2017-Mar-26 11:30N 49°55' W 004°25'20 9.9
2017-Mar-26 09:30N 49°57' W 003°54'11 9.6
2017-Mar-26 08:23N 49°58' W 003°37'7 8.8
2017-Mar-26 07:33N 49°58' W 003°26'9 8.1
2017-Mar-26 06:30N 49°59' W 003°13'7 7.6
2017-Mar-26 05:34N 50°00' W 003°02'40 9.0
2017-Mar-26 01:07N 50°10' W 002°01'711.7
2017-Mar-26 00:33N 50°12' W 001°52'1211.6
2017-Mar-25 23:33N 50°15' W 001°34'1111.0
2017-Mar-25 22:32N 50°18' W 001°17'33 7.4
2017-Mar-25 18:04N 50°27' W 000°27'4 7.2
2017-Mar-25 17:33N 50°28' W 000°21'8 8.0
2017-Mar-25 16:34N 50°30' W 000°09'9 9.2
2017-Mar-25 15:33N 50°33' E 000°04'1010.0
2017-Mar-25 14:33N 50°36' E 000°20'1010.3
2017-Mar-25 13:34N 50°39' E 000°35'1010.1
2017-Mar-25 12:34N 50°45' E 000°48'10 9.3
2017-Mar-25 11:29N 50°50' E 001°01'8 8.4
2017-Mar-25 10:32N 50°56' E 001°11'8 7.8
2017-Mar-25 09:33N 51°00' E 001°20'8 8.2
2017-Mar-25 08:33N 51°06' E 001°30'9 9.2
2017-Mar-25 07:34N 51°13' E 001°40'1010.4
2017-Mar-25 06:33N 51°23' E 001°44'10 9.9
2017-Mar-25 05:33N 51°33' E 001°45'10 9.7
2017-Mar-25 04:33N 51°42' E 001°46'9 9.2
2017-Mar-25 03:33N 51°51' E 001°44'8 8.2
2017-Mar-25 02:34N 51°59' E 001°46'7 7.4
2017-Mar-25 01:33N 52°07' E 001°48'7 7.2
2017-Mar-25 00:34N 52°14' E 001°50'23 7.3
2017-Mar-24 21:26N 52°37' E 001°55'8 8.8
2017-Mar-24 20:33N 52°44' E 001°56'9 9.3
2017-Mar-24 19:33N 52°50' E 001°45'1010.0
2017-Mar-24 18:33N 52°58' E 001°33'1010.2
2017-Mar-24 17:34N 53°06' E 001°24'1110.2
2017-Mar-24 16:31N 53°15' E 001°15'48 9.5
2017-Mar-24 11:26N 53°56' E 000°30'8 8.6
2017-Mar-24 10:28N 54°02' E 000°22'7 8.2
2017-Mar-24 09:33N 54°08' E 000°15'8 7.9
2017-Mar-24 08:34N 54°15' E 000°08'7 7.3
2017-Mar-24 07:34N 54°20' W 000°02'8 7.7
2017-Mar-24 06:34N 54°26' W 000°10'8 7.9
2017-Mar-24 05:33N 54°32' W 000°19'8 7.9
2017-Mar-24 04:33N 54°38' W 000°29'20 8.5
2017-Mar-24 02:10N 54°48' W 000°59'5 8.7
2017-Mar-24 01:33N 54°51' W 001°07'9 8.5
2017-Mar-24 00:33N 54°55' W 001°19'  
2017-Mar-19 13:17N 54°55' W 001°19'0 0.0
2017-Mar-19 11:17N 54°55' W 001°19'0 0.0
2017-Mar-19 09:15N 54°55' W 001°19'5 7.1
2017-Mar-19 08:33N 54°57' W 001°12'6 6.1
2017-Mar-19 07:33N 55°03' W 001°07'8 7.9
2017-Mar-19 06:34N 55°10' W 001°12'10 9.7
2017-Mar-19 05:33N 55°20' W 001°16'10 9.8
2017-Mar-19 04:33N 55°29' W 001°19'10 9.6
2017-Mar-19 03:33N 55°39' W 001°23'9 8.5
2017-Mar-19 02:31N 55°46' W 001°32'9 9.1
2017-Mar-19 01:33N 55°51' W 001°45'9 8.7
2017-Mar-19 00:33N 55°56' W 001°58'9 9.2
2017-Mar-18 23:33N 56°00' W 002°12'9 9.2
2017-Mar-18 22:33N 56°05' W 002°26'10 9.6
2017-Mar-18 21:33N 56°06' W 002°43'1010.1
2017-Mar-18 20:33N 56°03' W 003°00'1110.8
2017-Mar-18 19:33N 56°01' W 003°19'  
Track history (hours):
 
Tides and Currents Weather Stations Pressure Air Temp Water Temp Dewpoint Dewpoint Depression Visibility Wind Speed Wind Dir Waves Ship Positions

Paganini

Last reported at 2017-Mar-27 00:34 UTC. Time now 2017-Mar-27 00:46 UTC.
Position N 50°35' W 005°28'.

Length 90 m; draft 5.4 m.

Type: Cargo ship. MMSI: 305040000.

Date/timePositionNaut miles runAvg speedWind from/ knotsBaromVisibWave heightAir tempDewpointWater temp
2017-Mar-27 00:34N 50°35' W 005°28'8 7.8
2017-Mar-26 23:33N 50°30' W 005°37'8 7.1
2017-Mar-26 22:28N 50°25' W 005°46'8 6.5
2017-Mar-26 21:17N 50°18' W 005°53'6 6.8
2017-Mar-26 20:26N 50°13' W 005°54'6 6.6
2017-Mar-26 19:32N 50°07' W 005°53'34 6.6
2017-Mar-26 14:23N 49°53' W 005°05'7 8.3
2017-Mar-26 13:33N 49°54' W 004°54'10 8.9
2017-Mar-26 12:26N 49°54' W 004°38'9 9.5
2017-Mar-26 11:30N 49°55' W 004°25'20 9.9
2017-Mar-26 09:30N 49°57' W 003°54'11 9.6
2017-Mar-26 08:23N 49°58' W 003°37'7 8.8
2017-Mar-26 07:33N 49°58' W 003°26'9 8.1
2017-Mar-26 06:30N 49°59' W 003°13'7 7.6
2017-Mar-26 05:34N 50°00' W 003°02'40 9.0
2017-Mar-26 01:07N 50°10' W 002°01'711.7
2017-Mar-26 00:33N 50°12' W 001°52'1211.6
2017-Mar-25 23:33N 50°15' W 001°34'1111.0
2017-Mar-25 22:32N 50°18' W 001°17'33 7.4
2017-Mar-25 18:04N 50°27' W 000°27'4 7.2
2017-Mar-25 17:33N 50°28' W 000°21'8 8.0
2017-Mar-25 16:34N 50°30' W 000°09'9 9.2
2017-Mar-25 15:33N 50°33' E 000°04'1010.0
2017-Mar-25 14:33N 50°36' E 000°20'1010.3
2017-Mar-25 13:34N 50°39' E 000°35'1010.1
2017-Mar-25 12:34N 50°45' E 000°48'10 9.3
2017-Mar-25 11:29N 50°50' E 001°01'8 8.4
2017-Mar-25 10:32N 50°56' E 001°11'8 7.8
2017-Mar-25 09:33N 51°00' E 001°20'8 8.2
2017-Mar-25 08:33N 51°06' E 001°30'9 9.2
2017-Mar-25 07:34N 51°13' E 001°40'1010.4
2017-Mar-25 06:33N 51°23' E 001°44'10 9.9
2017-Mar-25 05:33N 51°33' E 001°45'10 9.7
2017-Mar-25 04:33N 51°42' E 001°46'9 9.2
2017-Mar-25 03:33N 51°51' E 001°44'8 8.2
2017-Mar-25 02:34N 51°59' E 001°46'7 7.4
2017-Mar-25 01:33N 52°07' E 001°48'7 7.2
2017-Mar-25 00:34N 52°14' E 001°50'23 7.3
2017-Mar-24 21:26N 52°37' E 001°55'8 8.8
2017-Mar-24 20:33N 52°44' E 001°56'9 9.3
2017-Mar-24 19:33N 52°50' E 001°45'1010.0
2017-Mar-24 18:33N 52°58' E 001°33'1010.2
2017-Mar-24 17:34N 53°06' E 001°24'1110.2
2017-Mar-24 16:31N 53°15' E 001°15'48 9.5
2017-Mar-24 11:26N 53°56' E 000°30'8 8.6
2017-Mar-24 10:28N 54°02' E 000°22'7 8.2
2017-Mar-24 09:33N 54°08' E 000°15'8 7.9
2017-Mar-24 08:34N 54°15' E 000°08'7 7.3
2017-Mar-24 07:34N 54°20' W 000°02'8 7.7
2017-Mar-24 06:34N 54°26' W 000°10'8 7.9
2017-Mar-24 05:33N 54°32' W 000°19'8 7.9
2017-Mar-24 04:33N 54°38' W 000°29'20 8.5
2017-Mar-24 02:10N 54°48' W 000°59'5 8.7
2017-Mar-24 01:33N 54°51' W 001°07'9 8.5
2017-Mar-24 00:33N 54°55' W 001°19'  
2017-Mar-19 13:17N 54°55' W 001°19'0 0.0
2017-Mar-19 11:17N 54°55' W 001°19'0 0.0
2017-Mar-19 09:15N 54°55' W 001°19'5 7.1
2017-Mar-19 08:33N 54°57' W 001°12'6 6.1
2017-Mar-19 07:33N 55°03' W 001°07'8 7.9
2017-Mar-19 06:34N 55°10' W 001°12'10 9.7
2017-Mar-19 05:33N 55°20' W 001°16'10 9.8
2017-Mar-19 04:33N 55°29' W 001°19'10 9.6
2017-Mar-19 03:33N 55°39' W 001°23'9 8.5
2017-Mar-19 02:31N 55°46' W 001°32'9 9.1
2017-Mar-19 01:33N 55°51' W 001°45'9 8.7
2017-Mar-19 00:33N 55°56' W 001°58'9 9.2
2017-Mar-18 23:33N 56°00' W 002°12'9 9.2
2017-Mar-18 22:33N 56°05' W 002°26'10 9.6
2017-Mar-18 21:33N 56°06' W 002°43'1010.1
2017-Mar-18 20:33N 56°03' W 003°00'1110.8
2017-Mar-18 19:33N 56°01' W 003°19'  

Dump ship's entire track history